Terminal Aerodrome Forecast
Issued by NWS

Home | Current Version | Previous Version | Text Only | Print | Product List | Glossary On
Versions: 1 2 3 4 5 6 7 8 9 10 11 12 13 14 15 16
000
FTUS46 KSEW 272330
TAFOLM
TAF
KOLM 272330Z 2800/2824 29006KT P6SM BKN070
     FM280400 VRB03KT P6SM SCT070
     FM281000 00000KT P6SM BCFG FEW011
      TEMPO 2812/2816 BKN011
     FM281600 VRB03KT P6SM SCT250
     FM282000 02007KT P6SM SCT250=

USA.gov is the U.S. government's official web portal to all federal, state and local government web resources and services.